createdAt,value
2023-07-24T00:02:05.848Z,3.30
2023-07-24T00:06:14.523Z,3.90
2023-07-24T00:10:23.127Z,3.83
2023-07-24T00:14:31.755Z,3.70
2023-07-24T00:18:40.414Z,3.80
2023-07-24T00:22:49.056Z,4.07
2023-07-24T00:26:57.684Z,3.70
2023-07-24T00:31:06.348Z,4.07
2023-07-24T00:35:14.991Z,3.90
2023-07-24T00:39:23.638Z,3.70
2023-07-24T00:43:32.264Z,3.30
2023-07-24T00:47:41.008Z,3.70
2023-07-24T00:51:49.835Z,5.20
2023-07-24T00:55:58.636Z,3.60
2023-07-24T01:00:08.224Z,3.60
2023-07-24T01:04:17.270Z,4.10
2023-07-24T01:08:26.217Z,4.20
2023-07-24T01:12:37.934Z,4.25
2023-07-24T01:16:48.935Z,3.77
2023-07-24T01:20:59.141Z,3.90
2023-07-24T01:25:13.849Z,4.33
2023-07-24T01:29:22.492Z,3.77
2023-07-24T01:33:32.673Z,4.47
2023-07-24T01:37:41.932Z,4.17
2023-07-24T01:41:51.150Z,4.80
2023-07-24T01:46:00.106Z,5.00
2023-07-24T01:50:21.605Z,4.00
2023-07-24T01:54:30.176Z,3.50
2023-07-24T01:58:58.282Z,4.40
2023-07-24T02:03:06.990Z,4.03
2023-07-24T02:07:35.073Z,4.00
2023-07-24T02:11:43.829Z,3.53
2023-07-24T02:15:54.084Z,4.33
2023-07-24T02:20:02.755Z,3.70
2023-07-24T02:24:11.459Z,3.90
2023-07-24T02:28:20.189Z,4.60
2023-07-24T02:32:28.803Z,4.10
2023-07-24T02:36:37.601Z,4.00
2023-07-24T02:41:05.592Z,4.10
2023-07-24T02:45:14.258Z,3.80
2023-07-24T02:49:22.913Z,4.90
2023-07-24T02:53:31.638Z,3.70
2023-07-24T02:57:40.334Z,4.20
2023-07-24T03:01:49.014Z,3.33
2023-07-24T03:05:57.596Z,3.97
2023-07-24T03:10:06.583Z,4.33
2023-07-24T03:14:15.290Z,4.43
2023-07-24T03:18:24.880Z,4.63
2023-07-24T03:22:33.514Z,5.07
2023-07-24T03:26:42.204Z,4.03
2023-07-24T03:30:50.976Z,4.60
2023-07-24T03:34:59.651Z,4.53
2023-07-24T03:39:08.296Z,5.20
2023-07-24T03:43:17.039Z,4.03
2023-07-24T03:47:26.476Z,4.10
2023-07-24T03:51:35.111Z,4.47
2023-07-24T03:55:43.860Z,4.40
2023-07-24T03:59:52.410Z,4.50
2023-07-24T04:04:01.639Z,5.23
2023-07-24T04:08:10.347Z,4.80
2023-07-24T04:12:19.029Z,4.63
2023-07-24T04:16:29.593Z,5.47
2023-07-24T04:20:39.194Z,5.60
2023-07-24T04:24:47.918Z,5.27
2023-07-24T04:28:56.622Z,5.43
2023-07-24T04:33:05.611Z,4.67
2023-07-24T04:37:14.233Z,4.43
2023-07-24T04:41:22.882Z,4.40
2023-07-24T04:45:31.502Z,4.27
2023-07-24T04:49:40.349Z,4.60
2023-07-24T04:53:49.061Z,4.70
2023-07-24T04:57:57.792Z,4.80
2023-07-24T05:02:06.533Z,4.87
2023-07-24T05:06:15.270Z,5.73
2023-07-24T05:10:23.980Z,5.27
2023-07-24T05:14:32.565Z,4.40
2023-07-24T05:18:41.376Z,5.70
2023-07-24T05:22:50.010Z,4.20
2023-07-24T05:26:58.892Z,4.70
2023-07-24T05:31:09.282Z,4.73
2023-07-24T05:35:17.900Z,4.60
2023-07-24T05:39:26.582Z,4.30
2023-07-24T05:43:35.181Z,4.50
2023-07-24T05:47:43.959Z,3.98
2023-07-24T05:51:53.752Z,3.80
2023-07-24T05:56:03.905Z,5.43
2023-07-24T06:00:12.836Z,4.77
2023-07-24T06:04:21.500Z,5.23
2023-07-24T06:08:30.197Z,5.10
2023-07-24T06:12:39.231Z,3.40
2023-07-24T06:16:47.988Z,2.97
2023-07-24T06:20:56.584Z,2.53
2023-07-24T06:25:05.549Z,3.07
2023-07-24T06:29:15.656Z,2.73
2023-07-24T06:33:43.597Z,2.20
2023-07-24T06:37:52.229Z,3.23
2023-07-24T06:42:01.346Z,2.30
2023-07-24T06:46:10.661Z,2.47
2023-07-24T06:50:19.406Z,2.37
2023-07-24T06:54:28.224Z,2.07
2023-07-24T06:58:37.172Z,1.93
2023-07-24T07:02:45.867Z,2.73
2023-07-24T07:06:54.599Z,2.83
2023-07-24T07:11:03.646Z,2.50
2023-07-24T07:15:12.482Z,2.70
2023-07-24T07:19:21.243Z,2.67
2023-07-24T07:23:29.902Z,3.23
2023-07-24T07:27:39.037Z,2.90
2023-07-24T07:31:47.658Z,3.43
2023-07-24T07:35:57.544Z,3.30
2023-07-24T07:40:07.581Z,3.90
2023-07-24T07:44:16.201Z,3.30
2023-07-24T07:48:25.017Z,3.03
2023-07-24T07:52:33.680Z,3.93
2023-07-24T07:56:42.364Z,3.20
2023-07-24T08:00:51.798Z,2.97
2023-07-24T08:05:05.335Z,3.00
2023-07-24T08:09:11.203Z,2.70
2023-07-24T08:13:19.837Z,2.80
2023-07-24T08:17:28.642Z,2.80
2023-07-24T08:21:39.109Z,2.50
2023-07-24T08:25:58.388Z,2.20
2023-07-24T08:30:07.945Z,2.10
2023-07-24T08:34:16.592Z,2.33
2023-07-24T08:38:25.620Z,2.17
2023-07-24T08:42:35.761Z,2.53
2023-07-24T08:46:47.532Z,2.20
2023-07-24T08:50:56.618Z,2.50
2023-07-24T08:55:06.664Z,2.70
2023-07-24T08:59:15.482Z,2.80
2023-07-24T09:03:24.206Z,2.80
2023-07-24T09:07:33.878Z,2.70
2023-07-24T09:11:50.598Z,2.20
2023-07-24T09:16:00.342Z,2.37
2023-07-24T09:20:09.837Z,2.77
2023-07-24T09:24:38.255Z,2.60
2023-07-24T09:28:56.006Z,2.63
2023-07-24T09:33:04.725Z,2.50
2023-07-24T09:37:15.004Z,2.87
2023-07-24T09:41:26.905Z,2.37
2023-07-24T09:45:36.461Z,2.60
2023-07-24T09:49:47.025Z,3.00
2023-07-24T09:53:59.165Z,2.70
2023-07-24T09:58:08.870Z,3.03
2023-07-24T10:02:19.363Z,2.70
2023-07-24T10:06:31.091Z,2.60
2023-07-24T10:10:43.081Z,2.40
2023-07-24T10:14:51.924Z,3.27
2023-07-24T10:19:00.603Z,2.50
2023-07-24T10:23:11.882Z,2.60
2023-07-24T10:27:23.774Z,3.13
2023-07-24T10:31:32.664Z,2.70
2023-07-24T10:35:48.233Z,2.97
2023-07-24T10:39:56.837Z,2.70
2023-07-24T10:44:06.062Z,3.10
2023-07-24T10:48:14.842Z,3.07
2023-07-24T10:52:34.394Z,3.40
2023-07-24T10:56:42.972Z,3.10
2023-07-24T11:00:51.592Z,3.20
2023-07-24T11:05:01.978Z,3.30
2023-07-24T11:09:10.637Z,3.00
2023-07-24T11:13:21.080Z,3.10
2023-07-24T11:17:39.457Z,2.80
2023-07-24T11:21:48.031Z,3.10
2023-07-24T11:25:56.629Z,3.20
2023-07-24T11:30:05.687Z,3.43
2023-07-24T11:34:15.008Z,3.20
2023-07-24T11:38:23.618Z,3.20
2023-07-24T11:42:32.775Z,3.40
2023-07-24T11:46:41.487Z,3.47
2023-07-24T11:51:10.916Z,3.83
2023-07-24T11:55:33.795Z,3.60
2023-07-24T11:59:42.382Z,4.13
2023-07-24T12:03:51.382Z,3.90
2023-07-24T12:08:04.516Z,3.10
2023-07-24T12:12:13.800Z,2.80
2023-07-24T12:16:22.436Z,3.57
2023-07-24T12:20:32.244Z,3.20
2023-07-24T12:24:40.924Z,3.27
2023-07-24T12:28:49.527Z,2.57
2023-07-24T12:32:59.270Z,3.77
2023-07-24T12:37:07.911Z,3.50
2023-07-24T12:41:16.506Z,3.57
2023-07-24T12:45:25.110Z,3.57
2023-07-24T12:49:33.739Z,3.57
2023-07-24T12:53:50.087Z,3.13
2023-07-24T12:57:52.521Z,3.63
2023-07-24T13:02:01.122Z,3.93
2023-07-24T13:06:09.796Z,3.77
2023-07-24T13:10:18.439Z,3.17
2023-07-24T13:14:27.108Z,3.77
2023-07-24T13:18:35.744Z,3.20
2023-07-24T13:22:46.059Z,3.40
2023-07-24T13:26:54.672Z,3.10
2023-07-24T13:31:15.128Z,3.27
2023-07-24T13:35:23.738Z,3.50
2023-07-24T13:39:32.540Z,2.90
2023-07-24T13:43:41.247Z,2.97
2023-07-24T13:47:49.906Z,3.33
2023-07-24T13:51:58.492Z,2.90
2023-07-24T13:56:07.545Z,2.70
2023-07-24T14:00:16.426Z,3.27
2023-07-24T14:04:25.174Z,3.30
2023-07-24T14:08:33.735Z,2.80
2023-07-24T14:12:42.474Z,2.90
2023-07-24T14:16:51.221Z,2.63
2023-07-24T14:21:00.736Z,3.20
2023-07-24T14:25:28.984Z,3.20
2023-07-24T14:29:37.641Z,3.30
2023-07-24T14:33:46.267Z,3.67
2023-07-24T14:37:54.888Z,3.40
2023-07-24T14:42:03.447Z,3.80
2023-07-24T14:46:12.075Z,4.30
2023-07-24T14:50:20.693Z,3.43
2023-07-24T14:54:29.308Z,3.87
2023-07-24T14:58:37.938Z,4.00
2023-07-24T15:02:46.605Z,3.80
2023-07-24T15:06:55.190Z,4.20
2023-07-24T15:11:03.981Z,3.30
2023-07-24T15:15:12.619Z,3.53
2023-07-24T15:19:21.241Z,3.73
2023-07-24T15:23:30.144Z,4.70
2023-07-24T15:27:38.749Z,5.70
2023-07-24T15:31:47.420Z,4.70
2023-07-24T15:35:56.009Z,4.43
2023-07-24T15:40:05.087Z,5.83
2023-07-24T15:44:13.703Z,6.20
2023-07-24T15:48:26.563Z,5.73
2023-07-24T15:52:33.074Z,6.07
2023-07-24T15:56:41.969Z,6.13
2023-07-24T16:00:50.832Z,6.70
2023-07-24T16:04:59.459Z,6.30
2023-07-24T16:09:08.079Z,5.80
2023-07-24T16:13:16.727Z,4.23
2023-07-24T16:17:25.406Z,5.20
2023-07-24T16:21:34.017Z,5.57
2023-07-24T16:25:42.555Z,5.33
2023-07-24T16:29:51.175Z,4.77
2023-07-24T16:34:00.181Z,4.20
2023-07-24T16:38:09.610Z,4.00
2023-07-24T16:42:18.985Z,4.27
2023-07-24T16:46:27.605Z,5.07
2023-07-24T16:50:37.281Z,4.80
2023-07-24T16:54:47.285Z,4.70
2023-07-24T16:58:55.909Z,4.57
2023-07-24T17:03:04.737Z,4.57
2023-07-24T17:07:13.389Z,4.60
2023-07-24T17:11:22.081Z,4.70
2023-07-24T17:15:30.633Z,4.50
2023-07-24T17:19:41.770Z,4.20
2023-07-24T17:23:49.414Z,4.80
2023-07-24T17:27:58.082Z,4.87
2023-07-24T17:32:06.963Z,5.13
2023-07-24T17:36:15.569Z,5.30
2023-07-24T17:40:24.179Z,5.70
2023-07-24T17:44:32.808Z,5.87
2023-07-24T17:48:43.243Z,5.57
2023-07-24T17:52:51.892Z,5.77
2023-07-24T17:57:00.537Z,5.80
2023-07-24T18:01:11.079Z,6.13
2023-07-24T18:05:19.668Z,5.60
2023-07-24T18:09:28.354Z,6.00
2023-07-24T18:13:37.005Z,5.70
2023-07-24T18:17:46.482Z,6.13
2023-07-24T18:21:55.209Z,6.60
2023-07-24T18:26:03.872Z,6.97
2023-07-24T18:30:12.892Z,6.13
2023-07-24T18:34:21.530Z,6.00
2023-07-24T18:38:30.118Z,6.57
2023-07-24T18:42:38.782Z,6.67
2023-07-24T18:46:47.405Z,7.27
2023-07-24T18:50:56.034Z,6.90
2023-07-24T18:55:04.805Z,5.80
2023-07-24T18:59:13.392Z,7.77
2023-07-24T19:03:22.154Z,7.60
2023-07-24T19:07:30.756Z,7.40
2023-07-24T19:11:39.408Z,7.87
2023-07-24T19:15:48.074Z,8.73
2023-07-24T19:19:56.630Z,9.03
2023-07-24T19:24:05.771Z,7.97
2023-07-24T19:28:14.422Z,7.27
2023-07-24T19:32:23.514Z,6.43
2023-07-24T19:36:32.145Z,4.80
2023-07-24T19:40:40.816Z,5.23
2023-07-24T19:44:49.681Z,5.03
2023-07-24T19:49:17.673Z,4.40
2023-07-24T19:53:26.873Z,3.73
2023-07-24T19:57:35.441Z,3.33
2023-07-24T20:01:44.147Z,3.03
2023-07-24T20:05:54.970Z,3.30
2023-07-24T20:10:03.616Z,3.20
2023-07-24T20:14:12.679Z,2.90
2023-07-24T20:18:21.784Z,3.00
2023-07-24T20:22:30.499Z,2.57
2023-07-24T20:26:39.365Z,2.70
2023-07-24T20:30:48.433Z,3.07
2023-07-24T20:34:57.126Z,2.70
2023-07-24T20:39:05.799Z,3.40
2023-07-24T20:43:14.398Z,2.50
2023-07-24T20:47:22.959Z,2.80
2023-07-24T20:51:31.931Z,2.20
2023-07-24T20:55:40.760Z,2.80
2023-07-24T20:59:49.329Z,2.53
2023-07-24T21:03:58.001Z,2.80
2023-07-24T21:08:08.315Z,3.23
2023-07-24T21:12:16.960Z,2.93
2023-07-24T21:16:25.586Z,2.33
2023-07-24T21:20:34.573Z,2.60
2023-07-24T21:24:43.194Z,2.23
2023-07-24T21:28:51.767Z,2.90
2023-07-24T21:33:00.333Z,2.40
2023-07-24T21:37:08.895Z,2.30
2023-07-24T21:41:17.506Z,3.20
2023-07-24T21:45:26.099Z,2.87
2023-07-24T21:49:34.694Z,2.93
2023-07-24T21:53:43.297Z,2.63
2023-07-24T21:57:51.898Z,2.70
2023-07-24T22:02:00.564Z,2.70
2023-07-24T22:06:09.236Z,2.43
2023-07-24T22:10:17.911Z,2.70
2023-07-24T22:14:26.508Z,3.10
2023-07-24T22:18:35.448Z,3.07
2023-07-24T22:22:44.084Z,2.83
2023-07-24T22:26:53.080Z,3.10
2023-07-24T22:31:01.703Z,2.80
2023-07-24T22:35:10.590Z,3.37
2023-07-24T22:39:19.217Z,3.10
2023-07-24T22:43:27.763Z,2.93
2023-07-24T22:47:36.354Z,3.10
2023-07-24T22:51:44.996Z,3.63
2023-07-24T22:55:53.614Z,3.23
2023-07-24T23:00:02.224Z,3.30
2023-07-24T23:04:10.775Z,3.27
2023-07-24T23:08:19.396Z,3.23
2023-07-24T23:12:28.034Z,2.70
2023-07-24T23:16:36.743Z,3.90
2023-07-24T23:20:45.493Z,3.10
2023-07-24T23:24:54.277Z,3.27
2023-07-24T23:29:03.008Z,3.07
2023-07-24T23:33:11.615Z,3.10
2023-07-24T23:37:20.296Z,3.70
2023-07-24T23:41:29.079Z,3.60
2023-07-24T23:45:38.169Z,3.50
2023-07-24T23:49:46.831Z,3.20
2023-07-24T23:53:55.420Z,3.13
2023-07-24T23:58:04.051Z,3.93
